Time;durP1;ratioP1;P1;durP2;ratioP2;P2;SDS_P1;SDS_P2;PMS_P1;PMS_P2;Temp;Humidity;BMP_temperature;BMP_pressure;BME280_temperature;BME280_humidity;BME280_pressure;Samples;Min_cycle;Max_cycle;Signal;HPM_P1;HPM_P2
2022/04/14 00:00:27;;;;;;;;;;;15.20;99.90;;;;;;5041228;28;19913;-86
2022/04/14 00:02:55;;;;;;;;;;;15.30;99.90;;;;;;5043944;28;19916;-87
2022/04/14 00:05:21;;;;;;;;;;;15.20;99.90;;;;;;5063336;28;19913;-85
2022/04/14 00:07:47;;;;;;;;;;;15.20;99.90;;;;;;5059626;28;20012;-86
2022/04/14 00:10:12;;;;;;;;;;;15.20;99.90;;;;;;5056248;28;19921;-86
2022/04/14 00:12:41;;;;;;;;;;;15.20;99.90;;;;;;5061838;28;19912;-86
2022/04/14 00:15:12;;;;;;;;;;;15.20;99.90;;;;;;5059426;28;19943;-86
2022/04/14 00:17:38;;;;;;;;;;;15.20;99.90;;;;;;5057191;28;19913;-87
2022/04/14 00:20:06;;;;;;;;;;;15.20;99.90;;;;;;5058804;28;19928;-86
2022/04/14 00:22:31;;;;;;;;;;;15.20;99.90;;;;;;5062053;28;19912;-87
2022/04/14 00:25:00;;;;;;;;;;;15.20;99.90;;;;;;5059592;28;20573;-87
2022/04/14 00:27:25;;;;;;;;;;;15.20;99.90;;;;;;5060449;28;20385;-86
2022/04/14 00:29:54;;;;;;;;;;;15.20;1.00;;;;;;5059719;28;19920;-86
2022/04/14 00:32:19;;;;;;;;;;;15.20;99.90;;;;;;5059101;28;19928;-86
2022/04/14 00:34:45;;;;;;;;;;;15.20;99.90;;;;;;5059630;28;19912;-87
2022/04/14 00:37:17;;;;;;;;;;;15.20;99.90;;;;;;5060431;28;19913;-87
2022/04/14 00:40:07;;;;;;;;;;;15.10;1.00;;;;;;5058306;28;19977;-86
2022/04/14 00:42:35;;;;;;;;;;;15.00;1.00;;;;;;5064118;28;19930;-86
2022/04/14 00:45:03;;;;;;;;;;;14.90;1.00;;;;;;5058543;28;20392;-85
2022/04/14 00:47:29;;;;;;;;;;;14.90;1.00;;;;;;5063789;28;20045;-87
2022/04/14 00:49:58;;;;;;;;;;;14.90;1.00;;;;;;5058681;28;19964;-87
2022/04/14 00:52:27;;;;;;;;;;;14.80;1.00;;;;;;5059526;28;20261;-86
2022/04/14 00:54:55;;;;;;;;;;;14.70;1.00;;;;;;5060197;28;21008;-86
2022/04/14 00:57:24;;;;;;;;;;;14.80;1.00;;;;;;5059000;28;19912;-85
2022/04/14 00:59:49;;;;;;;;;;;14.70;1.00;;;;;;5057838;28;19944;-87
2022/04/14 01:02:16;;;;;;;;;;;14.70;1.00;;;;;;5043620;28;20391;-85
2022/04/14 01:04:41;;;;;;;;;;;14.70;1.00;;;;;;5056376;28;19935;-87
2022/04/14 01:07:10;;;;;;;;;;;14.70;1.00;;;;;;5042771;28;19921;-86
2022/04/14 01:09:36;;;;;;;;;;;14.60;1.00;;;;;;5057294;28;19914;-86
2022/04/14 01:12:01;;;;;;;;;;;14.70;1.00;;;;;;5043737;28;19932;-85
2022/04/14 01:14:31;;;;;;;;;;;14.80;1.00;;;;;;5059474;28;19951;-85
2022/04/14 01:17:01;;;;;;;;;;;14.80;1.00;;;;;;5059656;28;19960;-85
2022/04/14 01:19:27;;;;;;;;;;;14.80;1.00;;;;;;5058533;28;19952;-86
2022/04/14 01:21:57;;;;;;;;;;;14.80;1.00;;;;;;5058601;28;20016;-85
2022/04/14 01:24:26;;;;;;;;;;;14.80;1.00;;;;;;5061591;28;19917;-85
2022/04/14 01:26:52;;;;;;;;;;;14.90;1.00;;;;;;5047242;28;20004;-86
2022/04/14 01:29:32;;;;;;;;;;;14.80;1.00;;;;;;5045707;28;19944;-86
2022/04/14 01:32:00;;;;;;;;;;;14.80;1.00;;;;;;5042989;28;19921;-86
2022/04/14 01:34:53;;;;;;;;;;;14.80;1.00;;;;;;5041439;28;20171;-85
2022/04/14 01:37:51;;;;;;;;;;;14.80;1.00;;;;;;5048137;28;19920;-85
2022/04/14 01:40:36;;;;;;;;;;;14.80;1.00;;;;;;5060963;28;19963;-85
2022/04/14 01:43:04;;;;;;;;;;;14.80;1.00;;;;;;5043192;28;19912;-83
2022/04/14 01:45:29;;;;;;;;;;;14.80;1.00;;;;;;5062491;28;19913;-86
2022/04/14 01:47:58;;;;;;;;;;;14.70;1.00;;;;;;5058675;28;19913;-87
2022/04/14 01:50:29;;;;;;;;;;;14.70;1.00;;;;;;5059488;28;19944;-86
2022/04/14 01:52:57;;;;;;;;;;;14.70;1.00;;;;;;5043106;28;20087;-86
2022/04/14 01:58:10;;;;;;;;;;;14.60;1.00;;;;;;5058781;28;19920;-86
2022/04/14 02:00:57;;;;;;;;;;;14.60;1.00;;;;;;5059891;28;20279;-86
2022/04/14 02:06:31;;;;;;;;;;;14.50;1.00;;;;;;5038826;28;19913;-87
2022/04/14 02:09:07;;;;;;;;;;;14.50;1.00;;;;;;5055015;28;19923;-87
2022/04/14 02:11:41;;;;;;;;;;;14.50;1.00;;;;;;5042390;28;19925;-86
2022/04/14 02:14:27;;;;;;;;;;;14.40;1.00;;;;;;5055776;28;19912;-86
2022/04/14 02:16:55;;;;;;;;;;;14.40;1.00;;;;;;5052449;28;20058;-86
2022/04/14 02:19:20;;;;;;;;;;;14.30;1.00;;;;;;5057375;28;19913;-86
2022/04/14 02:21:49;;;;;;;;;;;14.20;1.00;;;;;;5036763;28;19924;-86
2022/04/14 02:24:22;;;;;;;;;;;14.20;1.00;;;;;;5041854;28;19979;-86
2022/04/14 02:27:12;;;;;;;;;;;14.20;1.00;;;;;;5058868;28;19912;-86
2022/04/14 02:29:37;;;;;;;;;;;14.20;1.00;;;;;;5059041;28;19912;-86
2022/04/14 02:32:03;;;;;;;;;;;14.20;1.00;;;;;;5058364;28;20146;-87
2022/04/14 02:34:31;;;;;;;;;;;14.20;1.00;;;;;;5056550;28;19920;-86
2022/04/14 02:36:57;;;;;;;;;;;14.20;1.00;;;;;;5057468;28;19917;-86
2022/04/14 02:39:28;;;;;;;;;;;14.10;1.00;;;;;;5061094;28;19932;-86
2022/04/14 02:41:55;;;;;;;;;;;14.10;1.00;;;;;;5056139;28;19914;-86
2022/04/14 02:44:21;;;;;;;;;;;14.10;1.00;;;;;;5044619;28;19956;-86
2022/04/14 02:46:46;;;;;;;;;;;14.10;1.00;;;;;;5043566;28;19932;-87
2022/04/14 02:49:12;;;;;;;;;;;14.10;1.00;;;;;;5055721;28;19925;-86
2022/04/14 02:51:40;;;;;;;;;;;14.10;1.00;;;;;;5064019;28;19917;-86
2022/04/14 02:54:05;;;;;;;;;;;14.10;1.00;;;;;;5054549;28;19913;-86
2022/04/14 02:56:36;;;;;;;;;;;14.00;1.00;;;;;;5061314;28;20035;-87
2022/04/14 02:59:02;;;;;;;;;;;14.00;1.00;;;;;;5055550;28;19971;-86
2022/04/14 03:01:27;;;;;;;;;;;14.00;1.00;;;;;;5040332;28;19917;-86
2022/04/14 03:03:53;;;;;;;;;;;13.90;1.00;;;;;;5046179;28;19913;-86
2022/04/14 03:06:18;;;;;;;;;;;13.90;1.00;;;;;;5045247;28;19967;-86
2022/04/14 03:08:44;;;;;;;;;;;13.90;1.00;;;;;;5067006;28;19935;-86
2022/04/14 03:11:10;;;;;;;;;;;13.90;1.00;;;;;;5066870;28;19916;-86
2022/04/14 03:13:39;;;;;;;;;;;13.90;1.00;;;;;;5040777;28;20011;-87
2022/04/14 03:16:04;;;;;;;;;;;13.90;1.00;;;;;;5061482;28;19916;-86
2022/04/14 03:18:30;;;;;;;;;;;13.80;1.00;;;;;;5059520;28;19989;-87
2022/04/14 03:20:56;;;;;;;;;;;13.80;1.00;;;;;;5059720;28;19971;-86
2022/04/14 03:23:22;;;;;;;;;;;13.80;1.00;;;;;;5062217;28;19924;-87
2022/04/14 03:25:48;;;;;;;;;;;13.70;1.00;;;;;;5059545;28;19920;-86
2022/04/14 03:28:14;;;;;;;;;;;13.70;1.00;;;;;;5051775;28;19913;-87
2022/04/14 03:30:42;;;;;;;;;;;13.70;1.00;;;;;;5063773;28;20057;-87
2022/04/14 03:33:11;;;;;;;;;;;13.60;1.00;;;;;;5057990;28;19912;-87
2022/04/14 03:35:36;;;;;;;;;;;13.60;1.00;;;;;;5041635;28;19912;-87
2022/04/14 03:38:02;;;;;;;;;;;13.60;1.00;;;;;;5058392;28;19927;-87
2022/04/14 03:40:28;;;;;;;;;;;13.60;1.00;;;;;;5053429;28;19992;-86
2022/04/14 03:42:56;;;;;;;;;;;13.60;1.00;;;;;;5053347;28;19948;-86
2022/04/14 03:45:24;;;;;;;;;;;13.60;1.00;;;;;;5031358;28;19923;-86
2022/04/14 03:47:56;;;;;;;;;;;13.60;1.00;;;;;;5056266;28;20288;-85
2022/04/14 03:50:23;;;;;;;;;;;13.50;1.00;;;;;;5051708;28;19932;-86
2022/04/14 03:52:49;;;;;;;;;;;13.50;1.00;;;;;;5052355;28;19960;-87
2022/04/14 03:55:17;;;;;;;;;;;13.50;1.00;;;;;;5056436;28;19920;-87
2022/04/14 03:57:45;;;;;;;;;;;13.50;1.00;;;;;;5046325;28;19916;-86
2022/04/14 04:00:14;;;;;;;;;;;13.50;1.00;;;;;;5058917;28;19991;-87
2022/04/14 04:02:39;;;;;;;;;;;13.40;1.00;;;;;;5055464;28;19984;-86
2022/04/14 04:05:08;;;;;;;;;;;13.40;1.00;;;;;;5054437;28;19952;-86
2022/04/14 04:07:45;;;;;;;;;;;13.40;1.00;;;;;;5053787;28;19913;-86
2022/04/14 04:10:10;;;;;;;;;;;13.40;1.00;;;;;;5053649;28;19924;-87
2022/04/14 04:12:36;;;;;;;;;;;13.40;1.00;;;;;;5042508;28;19913;-86
2022/04/14 04:15:01;;;;;;;;;;;13.40;1.00;;;;;;5065351;28;19963;-86
2022/04/14 04:17:27;;;;;;;;;;;13.40;1.00;;;;;;5062051;28;19917;-87
2022/04/14 04:19:58;;;;;;;;;;;13.30;1.00;;;;;;5062640;28;19912;-85
2022/04/14 04:22:23;;;;;;;;;;;13.30;1.00;;;;;;5055842;28;19912;-86
2022/04/14 04:24:52;;;;;;;;;;;13.30;1.00;;;;;;5058448;28;19944;-86
2022/04/14 04:27:20;;;;;;;;;;;13.30;1.00;;;;;;5060672;28;19914;-86
2022/04/14 04:29:45;;;;;;;;;;;13.30;1.00;;;;;;5054559;28;19913;-87
2022/04/14 04:32:23;;;;;;;;;;;13.30;1.00;;;;;;5059829;28;19917;-86
2022/04/14 04:34:49;;;;;;;;;;;13.30;1.00;;;;;;5056851;28;19991;-85
2022/04/14 04:37:17;;;;;;;;;;;13.30;1.00;;;;;;5058157;28;20365;-87
2022/04/14 04:39:49;;;;;;;;;;;13.20;1.00;;;;;;5061471;28;19913;-88
2022/04/14 04:42:18;;;;;;;;;;;13.30;1.00;;;;;;5057471;28;19913;-86
2022/04/14 04:44:43;;;;;;;;;;;13.30;1.00;;;;;;5061726;28;19913;-86
2022/04/14 04:47:11;;;;;;;;;;;13.30;1.00;;;;;;5055119;28;20006;-86
2022/04/14 04:49:42;;;;;;;;;;;13.20;1.00;;;;;;5061677;28;19920;-86
2022/04/14 04:52:10;;;;;;;;;;;13.20;1.00;;;;;;5040301;28;19935;-86
2022/04/14 04:54:38;;;;;;;;;;;13.20;1.00;;;;;;5061957;28;19909;-85
2022/04/14 04:57:03;;;;;;;;;;;13.20;1.00;;;;;;5056231;28;19920;-86
2022/04/14 04:59:29;;;;;;;;;;;13.20;1.00;;;;;;5061400;28;20377;-87
2022/04/14 05:01:55;;;;;;;;;;;13.20;1.00;;;;;;5057235;28;19917;-87
2022/04/14 05:04:23;;;;;;;;;;;13.20;1.00;;;;;;5058608;28;19925;-86
2022/04/14 05:06:49;;;;;;;;;;;13.20;1.00;;;;;;5058888;28;19913;-85
2022/04/14 05:09:16;;;;;;;;;;;13.20;1.00;;;;;;5062987;28;19916;-86
2022/04/14 05:11:44;;;;;;;;;;;13.20;1.00;;;;;;5061016;28;19920;-86
2022/04/14 05:14:09;;;;;;;;;;;13.20;1.00;;;;;;5044740;28;19916;-86
2022/04/14 05:16:35;;;;;;;;;;;13.20;1.00;;;;;;5057467;28;19962;-87
2022/04/14 05:19:00;;;;;;;;;;;13.20;1.00;;;;;;5058019;28;19912;-86
2022/04/14 05:21:26;;;;;;;;;;;13.20;1.00;;;;;;5062377;28;19959;-86
2022/04/14 05:23:51;;;;;;;;;;;13.20;1.00;;;;;;5062575;28;19944;-86
2022/04/14 05:26:17;;;;;;;;;;;13.20;1.00;;;;;;5062193;28;19913;-86
2022/04/14 05:28:43;;;;;;;;;;;13.30;1.00;;;;;;5057828;28;19908;-86
2022/04/14 05:31:08;;;;;;;;;;;13.30;1.00;;;;;;5058940;28;19920;-87
2022/04/14 05:33:34;;;;;;;;;;;13.30;1.00;;;;;;5061890;28;20392;-86
2022/04/14 05:35:59;;;;;;;;;;;13.30;1.00;;;;;;5057546;28;19909;-88
2022/04/14 05:38:27;;;;;;;;;;;13.30;1.00;;;;;;5044256;28;20377;-83
2022/04/14 05:40:53;;;;;;;;;;;13.40;1.00;;;;;;5037750;28;19970;-84
2022/04/14 05:43:19;;;;;;;;;;;13.50;1.00;;;;;;5039539;28;19912;-89
2022/04/14 05:45:47;;;;;;;;;;;13.50;1.00;;;;;;5055163;28;19912;-87
2022/04/14 05:48:13;;;;;;;;;;;13.60;1.00;;;;;;5057792;28;19913;-85
2022/04/14 05:50:39;;;;;;;;;;;13.60;1.00;;;;;;5063453;28;19971;-86
2022/04/14 05:53:05;;;;;;;;;;;13.60;1.00;;;;;;5064633;28;19913;-84
2022/04/14 05:55:33;;;;;;;;;;;13.60;1.00;;;;;;5054168;28;20407;-85
2022/04/14 05:57:59;;;;;;;;;;;13.70;1.00;;;;;;5045279;28;19963;-86
2022/04/14 06:00:24;;;;;;;;;;;13.70;1.00;;;;;;5055469;28;19991;-87
2022/04/14 06:02:49;;;;;;;;;;;13.70;1.00;;;;;;5052556;28;19913;-85
2022/04/14 06:05:15;;;;;;;;;;;13.80;1.00;;;;;;5059946;28;19912;-86
2022/04/14 06:07:40;;;;;;;;;;;13.80;1.00;;;;;;5068940;28;19931;-86
2022/04/14 06:10:06;;;;;;;;;;;13.90;1.00;;;;;;5058487;28;19967;-86
2022/04/14 06:12:31;;;;;;;;;;;14.00;1.00;;;;;;5059819;28;19995;-85
2022/04/14 06:14:57;;;;;;;;;;;14.10;1.00;;;;;;5058087;28;19913;-86
2022/04/14 06:17:22;;;;;;;;;;;14.20;99.90;;;;;;5061417;28;19995;-85
2022/04/14 06:19:48;;;;;;;;;;;14.30;99.90;;;;;;5060128;28;19920;-88
2022/04/14 06:22:13;;;;;;;;;;;14.40;99.90;;;;;;5056941;28;19920;-87
2022/04/14 06:24:39;;;;;;;;;;;14.50;99.90;;;;;;5055290;28;19917;-86
2022/04/14 06:27:05;;;;;;;;;;;14.70;99.90;;;;;;5059749;28;20306;-86
2022/04/14 06:29:31;;;;;;;;;;;14.90;1.00;;;;;;5058966;28;20369;-86
2022/04/14 06:31:56;;;;;;;;;;;15.10;1.00;;;;;;5059718;28;19925;-86
2022/04/14 06:34:22;;;;;;;;;;;15.40;99.90;;;;;;5054680;28;19991;-86
2022/04/14 06:36:47;;;;;;;;;;;15.80;1.00;;;;;;5054265;28;19920;-87
2022/04/14 06:39:13;;;;;;;;;;;16.50;6.60;;;;;;5061334;28;19956;-86
2022/04/14 06:41:39;;;;;;;;;;;17.50;99.90;;;;;;5059458;28;19939;-87
2022/04/14 06:44:05;;;;;;;;;;;18.70;99.90;;;;;;5068826;28;20377;-83
2022/04/14 06:46:30;;;;;;;;;;;20.50;99.90;;;;;;5045850;28;19967;-87
2022/04/14 06:48:56;;;;;;;;;;;21.40;1.00;;;;;;5061938;28;19912;-84
2022/04/14 06:51:23;;;;;;;;;;;21.90;99.90;;;;;;5051211;28;20408;-85
2022/04/14 06:53:49;;;;;;;;;;;22.30;99.90;;;;;;5054047;28;19955;-83
2022/04/14 06:56:14;;;;;;;;;;;22.90;99.90;;;;;;5041375;28;19943;-85
2022/04/14 06:58:41;;;;;;;;;;;23.50;99.90;;;;;;5058195;28;19943;-84
2022/04/14 07:01:07;;;;;;;;;;;24.50;99.90;;;;;;5053343;28;19920;-86
2022/04/14 07:03:32;;;;;;;;;;;25.40;99.90;;;;;;5061405;28;19916;-88
2022/04/14 07:06:00;;;;;;;;;;;26.30;99.90;;;;;;5059899;28;19980;-85
2022/04/14 07:08:29;;;;;;;;;;;27.20;99.90;;;;;;5059435;28;19920;-84
2022/04/14 07:10:55;;;;;;;;;;;28.60;99.90;;;;;;5057462;28;19972;-86
2022/04/14 07:13:23;;;;;;;;;;;29.50;99.90;;;;;;5058120;28;19920;-84
2022/04/14 07:15:48;;;;;;;;;;;30.00;99.90;;;;;;5059147;28;20031;-87
2022/04/14 07:18:14;;;;;;;;;;;31.20;99.90;;;;;;5057232;28;20400;-85
2022/04/14 07:20:39;;;;;;;;;;;33.40;99.90;;;;;;5034867;28;19936;-85
2022/04/14 07:23:06;;;;;;;;;;;35.50;99.90;;;;;;5054180;28;19943;-85
2022/04/14 07:25:33;;;;;;;;;;;37.20;99.90;;;;;;5045401;28;19913;-86
2022/04/14 07:27:59;;;;;;;;;;;38.40;99.90;;;;;;5051442;28;19919;-86
2022/04/14 07:30:26;;;;;;;;;;;39.70;99.90;;;;;;5054147;28;19924;-86
2022/04/14 07:32:52;;;;;;;;;;;40.90;99.90;;;;;;5056961;28;19913;-85
2022/04/14 07:35:20;;;;;;;;;;;41.60;99.90;;;;;;5045693;28;19921;-86
2022/04/14 07:37:46;;;;;;;;;;;42.00;99.90;;;;;;5059996;28;19920;-85
2022/04/14 07:40:11;;;;;;;;;;;42.30;99.90;;;;;;5051842;28;19921;-86
2022/04/14 07:42:40;;;;;;;;;;;42.70;99.90;;;;;;5056570;28;19985;-86
2022/04/14 07:45:06;;;;;;;;;;;43.20;99.90;;;;;;5054457;28;19921;-86
2022/04/14 07:47:32;;;;;;;;;;;43.40;99.90;;;;;;5045544;28;20011;-86
2022/04/14 07:49:57;;;;;;;;;;;43.50;99.90;;;;;;5038186;28;19966;-86
2022/04/14 07:52:25;;;;;;;;;;;43.80;99.90;;;;;;5039440;28;19913;-86
2022/04/14 07:54:51;;;;;;;;;;;43.70;99.90;;;;;;5051391;28;20331;-85
2022/04/14 07:57:16;;;;;;;;;;;43.40;99.90;;;;;;5054119;28;19913;-85
2022/04/14 07:59:41;;;;;;;;;;;43.70;99.90;;;;;;5052040;28;19935;-85
2022/04/14 08:02:07;;;;;;;;;;;43.90;99.90;;;;;;5047939;28;20000;-85
2022/04/14 08:04:33;;;;;;;;;;;44.20;99.90;;;;;;5045803;28;20380;-86
2022/04/14 08:06:58;;;;;;;;;;;44.40;99.90;;;;;;5053090;28;19916;-85
2022/04/14 08:09:24;;;;;;;;;;;44.70;99.90;;;;;;5033831;28;19995;-85
2022/04/14 08:11:50;;;;;;;;;;;44.90;99.90;;;;;;5055420;28;20249;-85
2022/04/14 08:14:15;;;;;;;;;;;44.90;99.90;;;;;;5051419;28;19917;-86
2022/04/14 08:16:41;;;;;;;;;;;44.70;99.90;;;;;;5055260;28;19923;-85
2022/04/14 08:19:06;;;;;;;;;;;44.70;99.90;;;;;;5050782;28;19913;-85
2022/04/14 08:21:32;;;;;;;;;;;44.00;99.90;;;;;;5055081;28;19919;-85
2022/04/14 08:23:58;;;;;;;;;;;43.90;99.90;;;;;;5035126;28;19917;-85
2022/04/14 08:26:26;;;;;;;;;;;44.10;99.90;;;;;;5052980;28;20004;-85
2022/04/14 08:28:53;;;;;;;;;;;44.50;99.90;;;;;;5039014;28;19921;-86
2022/04/14 08:31:21;;;;;;;;;;;45.10;99.90;;;;;;5053350;28;19917;-86
2022/04/14 08:33:46;;;;;;;;;;;45.00;99.90;;;;;;5053609;28;19912;-85
2022/04/14 08:36:15;;;;;;;;;;;45.40;99.90;;;;;;5053565;28;19921;-85
2022/04/14 08:38:41;;;;;;;;;;;45.30;99.90;;;;;;5051268;28;19913;-86
2022/04/14 08:41:07;;;;;;;;;;;45.20;99.90;;;;;;5052114;28;19913;-85
2022/04/14 08:43:33;;;;;;;;;;;44.50;99.90;;;;;;5052420;28;19936;-85
2022/04/14 08:45:59;;;;;;;;;;;44.20;99.90;;;;;;5061389;28;19921;-83
2022/04/14 08:48:26;;;;;;;;;;;44.40;99.90;;;;;;5054517;28;19917;-83
2022/04/14 08:50:51;;;;;;;;;;;44.20;99.90;;;;;;5052515;28;20660;-83
2022/04/14 08:53:18;;;;;;;;;;;44.20;99.90;;;;;;5051657;28;19948;-83
2022/04/14 08:55:43;;;;;;;;;;;43.90;99.90;;;;;;5048085;28;20007;-83
2022/04/14 08:58:15;;;;;;;;;;;43.40;99.90;;;;;;5045227;28;19975;-85
2022/04/14 09:00:41;;;;;;;;;;;43.40;99.90;;;;;;5051026;28;19913;-83
2022/04/14 09:03:06;;;;;;;;;;;42.50;99.90;;;;;;5055094;28;19919;-84
2022/04/14 09:05:32;;;;;;;;;;;40.30;99.90;;;;;;5042982;28;19923;-83
2022/04/14 09:07:57;;;;;;;;;;;39.70;99.90;;;;;;5054841;28;19912;-83
2022/04/14 09:10:23;;;;;;;;;;;39.90;99.90;;;;;;5060677;28;19983;-83
2022/04/14 09:12:49;;;;;;;;;;;39.10;99.90;;;;;;5057653;28;19913;-85
2022/04/14 09:15:15;;;;;;;;;;;40.30;99.90;;;;;;5036033;28;19912;-85
2022/04/14 09:17:41;;;;;;;;;;;41.30;99.90;;;;;;5051063;28;19980;-85
2022/04/14 09:20:25;;;;;;;;;;;41.80;99.90;;;;;;5036801;28;19952;-85
2022/04/14 09:23:09;;;;;;;;;;;42.30;99.90;;;;;;5052669;28;19913;-85
2022/04/14 09:25:34;;;;;;;;;;;41.80;99.90;;;;;;5061271;28;19909;-85
2022/04/14 09:28:12;;;;;;;;;;;38.50;99.90;;;;;;5060137;28;19920;-86
2022/04/14 09:30:38;;;;;;;;;;;38.10;99.90;;;;;;5057539;28;19970;-86
2022/04/14 09:33:04;;;;;;;;;;;35.50;99.90;;;;;;5055909;28;19943;-85
2022/04/14 09:35:31;;;;;;;;;;;36.60;99.90;;;;;;5050090;28;19916;-86
2022/04/14 09:38:04;;;;;;;;;;;36.40;99.90;;;;;;5055889;28;19984;-85
2022/04/14 09:40:30;;;;;;;;;;;36.40;99.90;;;;;;5065080;28;19912;-85
2022/04/14 09:42:56;;;;;;;;;;;38.00;99.90;;;;;;5052624;28;19919;-85
2022/04/14 09:45:22;;;;;;;;;;;39.40;99.90;;;;;;5052910;28;19921;-85
2022/04/14 09:47:48;;;;;;;;;;;40.00;99.90;;;;;;5033542;28;19947;-86
2022/04/14 09:50:28;;;;;;;;;;;40.50;99.90;;;;;;5050747;28;19917;-85
2022/04/14 09:52:58;;;;;;;;;;;40.40;99.90;;;;;;5036445;28;19919;-85
2022/04/14 09:55:23;;;;;;;;;;;39.00;99.90;;;;;;5057898;28;19917;-85
2022/04/14 09:58:07;;;;;;;;;;;40.20;99.90;;;;;;5049515;28;19920;-86
2022/04/14 10:00:37;;;;;;;;;;;39.30;99.90;;;;;;5050782;28;19917;-85
2022/04/14 10:03:13;;;;;;;;;;;37.20;99.90;;;;;;5056076;28;19992;-86
2022/04/14 10:05:39;;;;;;;;;;;36.30;99.90;;;;;;5057009;28;19968;-85
2022/04/14 10:08:08;;;;;;;;;;;36.40;99.90;;;;;;5054888;28;19956;-85
2022/04/14 10:10:34;;;;;;;;;;;37.60;99.90;;;;;;5052767;28;19917;-84
2022/04/14 10:13:05;;;;;;;;;;;38.40;99.90;;;;;;5052592;28;19917;-85
2022/04/14 10:15:31;;;;;;;;;;;38.80;99.90;;;;;;5052490;28;19949;-85
2022/04/14 10:17:57;;;;;;;;;;;39.80;99.90;;;;;;5035692;28;20281;-85
2022/04/14 10:20:25;;;;;;;;;;;40.80;99.90;;;;;;5053575;28;19913;-85
2022/04/14 10:22:50;;;;;;;;;;;40.40;99.90;;;;;;5054281;28;19912;-85
2022/04/14 10:25:16;;;;;;;;;;;40.70;99.90;;;;;;5050796;28;19959;-85
2022/04/14 10:27:41;;;;;;;;;;;41.20;99.90;;;;;;5053898;28;19994;-85
2022/04/14 10:30:07;;;;;;;;;;;41.00;99.90;;;;;;5047243;28;19924;-84
2022/04/14 10:32:36;;;;;;;;;;;41.20;99.90;;;;;;5051441;28;20301;-85
2022/04/14 10:35:05;;;;;;;;;;;41.10;99.90;;;;;;5056199;28;20420;-84
2022/04/14 10:37:32;;;;;;;;;;;39.60;99.90;;;;;;5055185;28;19988;-85
2022/04/14 10:39:58;;;;;;;;;;;37.80;99.90;;;;;;5059297;28;19970;-85
2022/04/14 10:42:27;;;;;;;;;;;38.60;99.90;;;;;;5047501;28;20319;-85
2022/04/14 10:44:53;;;;;;;;;;;39.70;99.90;;;;;;5047002;28;19920;-85
2022/04/14 10:47:33;;;;;;;;;;;40.60;99.90;;;;;;5033166;28;19936;-85
2022/04/14 10:49:58;;;;;;;;;;;40.80;99.90;;;;;;5050740;28;20421;-84
2022/04/14 10:52:25;;;;;;;;;;;39.50;99.90;;;;;;5050182;28;19956;-85
2022/04/14 10:54:54;;;;;;;;;;;37.90;99.90;;;;;;5059009;28;20288;-85
2022/04/14 10:57:36;;;;;;;;;;;35.10;99.90;;;;;;5054874;28;19983;-85
2022/04/14 11:00:22;;;;;;;;;;;35.60;99.90;;;;;;5056042;28;19913;-85
2022/04/14 11:03:03;;;;;;;;;;;33.80;99.90;;;;;;5041683;28;19912;-85
2022/04/14 11:05:42;;;;;;;;;;;32.20;99.90;;;;;;5039448;28;19939;-85
2022/04/14 11:08:20;;;;;;;;;;;31.20;99.90;;;;;;5054966;28;20041;-85
2022/04/14 11:11:09;;;;;;;;;;;32.20;99.90;;;;;;5053775;28;19932;-85
2022/04/14 11:14:04;;;;;;;;;;;34.10;99.90;;;;;;5038290;28;20359;-85
2022/04/14 11:16:44;;;;;;;;;;;35.20;99.90;;;;;;5051591;28;19913;-85
2022/04/14 11:19:19;;;;;;;;;;;34.10;99.90;;;;;;5054817;28;20019;-86
2022/04/14 11:22:05;;;;;;;;;;;33.60;99.90;;;;;;5060638;28;19909;-85
2022/04/14 11:24:34;;;;;;;;;;;33.50;99.90;;;;;;5054798;28;19972;-85
2022/04/14 11:27:35;;;;;;;;;;;32.70;99.90;;;;;;5059989;28;19963;-85
2022/04/14 11:30:03;;;;;;;;;;;33.20;99.90;;;;;;5022879;28;19914;-85
2022/04/14 11:32:38;;;;;;;;;;;34.20;99.90;;;;;;5061588;28;19923;-85
2022/04/14 11:35:08;;;;;;;;;;;34.80;99.90;;;;;;5043110;28;19909;-85
2022/04/14 11:37:39;;;;;;;;;;;34.40;99.90;;;;;;5062012;28;19912;-85
2022/04/14 11:40:17;;;;;;;;;;;33.10;99.90;;;;;;5061386;28;19955;-85
2022/04/14 11:42:53;;;;;;;;;;;31.50;99.90;;;;;;5059080;28;19920;-85
2022/04/14 11:45:25;;;;;;;;;;;30.20;99.90;;;;;;5060944;28;19928;-85
2022/04/14 11:47:59;;;;;;;;;;;29.20;99.90;;;;;;5057749;28;20002;-85
2022/04/14 11:50:26;;;;;;;;;;;28.30;99.90;;;;;;5043988;28;19980;-85
2022/04/14 11:52:55;;;;;;;;;;;28.00;99.90;;;;;;5059533;28;19912;-85
2022/04/14 11:55:38;;;;;;;;;;;27.50;99.90;;;;;;5060523;28;20349;-85
2022/04/14 11:58:07;;;;;;;;;;;27.20;99.90;;;;;;5058467;28;19931;-85
2022/04/14 12:00:45;;;;;;;;;;;27.00;99.90;;;;;;5058798;28;19913;-85
2022/04/14 12:03:11;;;;;;;;;;;27.20;99.90;;;;;;5060094;28;19921;-85
2022/04/14 12:05:36;;;;;;;;;;;27.50;99.90;;;;;;5061916;28;19920;-84
2022/04/14 12:08:08;;;;;;;;;;;28.00;99.90;;;;;;5060458;28;19920;-85
2022/04/14 12:10:34;;;;;;;;;;;27.80;99.90;;;;;;5062885;28;19923;-85
2022/04/14 12:13:06;;;;;;;;;;;28.60;99.90;;;;;;5046696;28;19958;-85
2022/04/14 12:15:31;;;;;;;;;;;29.30;99.90;;;;;;5052592;28;20290;-85
2022/04/14 12:18:07;;;;;;;;;;;29.50;99.90;;;;;;5044724;28;19924;-85
2022/04/14 12:20:36;;;;;;;;;;;29.50;99.90;;;;;;5064184;28;19917;-85
2022/04/14 12:23:02;;;;;;;;;;;29.20;99.90;;;;;;5063527;28;19913;-85
2022/04/14 12:25:28;;;;;;;;;;;28.50;99.90;;;;;;5058631;28;19913;-84
2022/04/14 12:27:53;;;;;;;;;;;27.60;99.90;;;;;;5056569;28;19982;-83
2022/04/14 12:30:21;;;;;;;;;;;26.60;99.90;;;;;;5056099;28;19913;-83
2022/04/14 12:32:47;;;;;;;;;;;25.70;99.90;;;;;;5057573;28;19912;-83
2022/04/14 12:35:28;;;;;;;;;;;25.00;99.90;;;;;;5038898;28;19920;-84
2022/04/14 12:37:54;;;;;;;;;;;24.30;99.90;;;;;;5058200;28;20442;-84
2022/04/14 12:40:24;;;;;;;;;;;23.70;99.90;;;;;;5059102;28;19917;-84
2022/04/14 12:42:49;;;;;;;;;;;23.40;99.90;;;;;;5058520;28;19958;-83
2022/04/14 12:45:16;;;;;;;;;;;23.40;99.90;;;;;;5063837;28;19975;-84
2022/04/14 12:47:42;;;;;;;;;;;23.40;99.90;;;;;;5059146;28;19917;-84
2022/04/14 12:50:08;;;;;;;;;;;23.50;99.90;;;;;;5058358;28;19916;-84
2022/04/14 12:52:34;;;;;;;;;;;23.60;99.90;;;;;;5058276;28;20000;-84
2022/04/14 12:55:00;;;;;;;;;;;23.60;99.90;;;;;;5056759;28;19913;-84
2022/04/14 12:57:26;;;;;;;;;;;23.80;99.90;;;;;;5056044;28;20300;-84
2022/04/14 12:59:59;;;;;;;;;;;24.00;99.90;;;;;;5041610;28;20320;-84
2022/04/14 13:02:26;;;;;;;;;;;24.20;99.90;;;;;;5058065;28;19921;-84
2022/04/14 13:05:03;;;;;;;;;;;24.20;99.90;;;;;;5054184;28;19920;-84
2022/04/14 13:07:29;;;;;;;;;;;24.30;99.90;;;;;;5054648;28;19917;-84
2022/04/14 13:09:57;;;;;;;;;;;24.30;99.90;;;;;;5058303;28;19925;-83
2022/04/14 13:12:41;;;;;;;;;;;24.20;99.90;;;;;;5054071;28;19947;-84
2022/04/14 13:15:11;;;;;;;;;;;24.20;99.90;;;;;;5051809;28;19913;-84
2022/04/14 13:17:38;;;;;;;;;;;24.50;99.90;;;;;;5055492;28;20016;-84
2022/04/14 13:20:14;;;;;;;;;;;24.60;99.90;;;;;;5055592;28;20327;-84
2022/04/14 13:22:40;;;;;;;;;;;24.50;99.90;;;;;;5059504;28;19917;-84
2022/04/14 13:25:06;;;;;;;;;;;24.60;99.90;;;;;;5040117;28;19960;-84
2022/04/14 13:27:32;;;;;;;;;;;24.30;99.90;;;;;;5056698;28;19924;-84
2022/04/14 13:30:00;;;;;;;;;;;24.30;99.90;;;;;;5056161;28;19921;-84
2022/04/14 13:32:26;;;;;;;;;;;24.20;99.90;;;;;;5054653;28;19924;-84
2022/04/14 13:34:51;;;;;;;;;;;24.20;99.90;;;;;;5053770;28;19921;-84
2022/04/14 13:37:17;;;;;;;;;;;24.00;99.90;;;;;;5055538;28;19917;-84
2022/04/14 13:39:42;;;;;;;;;;;23.80;99.90;;;;;;5059907;28;19951;-84
2022/04/14 13:42:08;;;;;;;;;;;23.70;99.90;;;;;;5053954;28;19920;-83
2022/04/14 13:44:33;;;;;;;;;;;23.70;99.90;;;;;;5056520;28;19935;-84
2022/04/14 13:46:59;;;;;;;;;;;23.70;99.90;;;;;;5054635;28;20351;-84
2022/04/14 13:49:25;;;;;;;;;;;23.80;99.90;;;;;;5054967;28;20008;-85
2022/04/14 13:51:51;;;;;;;;;;;23.90;99.90;;;;;;5056285;28;20884;-84
2022/04/14 13:54:17;;;;;;;;;;;24.20;99.90;;;;;;5055641;28;19925;-84
2022/04/14 13:56:42;;;;;;;;;;;24.70;99.90;;;;;;5051207;28;19951;-84
2022/04/14 13:59:08;;;;;;;;;;;25.50;99.90;;;;;;5059249;28;19920;-84
2022/04/14 14:01:33;;;;;;;;;;;25.90;99.90;;;;;;5055093;28;20011;-84
2022/04/14 14:03:59;;;;;;;;;;;26.10;99.90;;;;;;5056182;28;19913;-83
2022/04/14 14:06:24;;;;;;;;;;;26.00;99.90;;;;;;5055066;28;19921;-84
2022/04/14 14:08:50;;;;;;;;;;;25.90;99.90;;;;;;5053312;28;19913;-84
2022/04/14 14:11:15;;;;;;;;;;;26.20;99.90;;;;;;5054945;28;19975;-85
2022/04/14 14:13:41;;;;;;;;;;;26.80;99.90;;;;;;5057333;28;20383;-84
2022/04/14 14:16:06;;;;;;;;;;;27.40;99.90;;;;;;5057170;28;19913;-85
2022/04/14 14:18:32;;;;;;;;;;;27.50;99.90;;;;;;5058470;28;19940;-84
2022/04/14 14:20:57;;;;;;;;;;;27.70;99.90;;;;;;5055407;28;19917;-84
2022/04/14 14:23:23;;;;;;;;;;;27.50;99.90;;;;;;5047962;28;19912;-84
2022/04/14 14:25:49;;;;;;;;;;;27.40;99.90;;;;;;5061760;28;19913;-84
2022/04/14 14:28:16;;;;;;;;;;;27.40;99.90;;;;;;5043951;28;19917;-86
2022/04/14 14:30:42;;;;;;;;;;;27.30;99.90;;;;;;5056237;28;20442;-87
2022/04/14 14:33:07;;;;;;;;;;;27.00;99.90;;;;;;5058025;28;19912;-84